Time;durP1;ratioP1;P1;durP2;ratioP2;P2;SDS_P1;SDS_P2;PMS_P1;PMS_P2;Temp;Humidity;BMP_temperature;BMP_pressure;BME280_temperature;BME280_humidity;BME280_pressure;Samples;Min_cycle;Max_cycle;Signal;HPM_P1;HPM_P2
2022/09/28 00:01:54;;;;;;;10.10;9.20;;;;;;;6.83;100.00;99529.03;5028710;28;20480;-64
2022/09/28 00:04:20;;;;;;;10.50;9.50;;;;;;;6.85;100.00;99533.38;5028858;28;20021;-64
2022/09/28 00:06:46;;;;;;;10.75;9.55;;;;;;;6.88;100.00;99535.19;5028928;28;20437;-64
2022/09/28 00:09:12;;;;;;;10.68;9.45;;;;;;;6.90;100.00;99533.53;5029300;28;20121;-64
2022/09/28 00:11:37;;;;;;;10.15;9.15;;;;;;;6.91;100.00;99542.09;5028760;28;20060;-65
2022/09/28 00:14:03;;;;;;;11.75;9.82;;;;;;;6.93;100.00;99541.31;5029802;28;20183;-64
2022/09/28 00:16:32;;;;;;;11.50;10.05;;;;;;;6.93;100.00;99536.16;5028790;28;20034;-64
2022/09/28 00:18:58;;;;;;;10.10;9.27;;;;;;;6.94;100.00;99535.31;5029415;28;20025;-64
2022/09/28 00:21:26;;;;;;;10.93;9.85;;;;;;;6.96;100.00;99525.09;5028665;28;20095;-64
2022/09/28 00:24:11;;;;;;;12.38;10.27;;;;;;;6.97;100.00;99521.66;5029054;28;20034;-64
2022/09/28 00:26:39;;;;;;;10.85;9.85;;;;;;;6.97;100.00;99522.56;5028093;28;20032;-64
2022/09/28 00:29:06;;;;;;;11.32;10.23;;;;;;;6.95;100.00;99524.22;5028825;28;20044;-64
2022/09/28 00:31:33;;;;;;;12.52;11.43;;;;;;;6.96;100.00;99520.78;5027741;28;20461;-64
2022/09/28 00:33:59;;;;;;;11.52;10.38;;;;;;;6.92;100.00;99518.97;5028539;28;20549;-64
2022/09/28 00:36:27;;;;;;;11.90;9.88;;;;;;;6.90;100.00;99514.63;5028202;28;20109;-64
2022/09/28 00:38:54;;;;;;;13.45;10.40;;;;;;;6.88;100.00;99512.00;5028932;28;20450;-64
2022/09/28 00:41:19;;;;;;;11.68;10.55;;;;;;;6.87;100.00;99512.84;5028645;28;20029;-64
2022/09/28 00:43:44;;;;;;;11.70;10.50;;;;;;;6.87;100.00;99509.41;5028725;28;20056;-64
2022/09/28 00:46:14;;;;;;;11.38;10.23;;;;;;;6.83;100.00;99508.44;5028773;28;20021;-64
2022/09/28 00:48:49;;;;;;;11.45;10.35;;;;;;;6.83;100.00;99505.88;5028347;28;20094;-64
2022/09/28 00:51:15;;;;;;;11.40;10.35;;;;;;;6.80;100.00;99505.78;5028203;28;20092;-64
2022/09/28 00:53:43;;;;;;;12.07;10.85;;;;;;;6.77;100.00;99498.84;5028459;28;20469;-64
2022/09/28 00:56:16;;;;;;;11.40;10.30;;;;;;;6.77;100.00;99498.84;5028279;28;20025;-64
2022/09/28 00:58:45;;;;;;;11.38;10.23;;;;;;;6.73;100.00;99505.63;5028854;28;20035;-64
2022/09/28 01:01:11;;;;;;;11.68;10.57;;;;;;;6.75;100.00;99504.78;5027978;28;20017;-64
2022/09/28 01:03:40;;;;;;;12.63;10.20;;;;;;;6.73;100.00;99497.91;5027687;28;20535;-64
2022/09/28 01:06:07;;;;;;;12.73;10.98;;;;;;;6.73;100.00;99503.03;5028323;28;20029;-65
2022/09/28 01:08:34;;;;;;;12.35;11.18;;;;;;;6.74;100.00;99488.47;5028685;28;20181;-64
2022/09/28 01:11:00;;;;;;;11.77;10.68;;;;;;;6.73;100.00;99487.59;5027508;28;20026;-65
2022/09/28 01:13:26;;;;;;;12.27;11.25;;;;;;;6.75;100.00;99490.19;5028332;28;20053;-64
2022/09/28 01:16:13;;;;;;;11.82;10.82;;;;;;;6.77;100.00;99497.97;5028293;28;20269;-64
2022/09/28 01:18:57;;;;;;;12.70;11.40;;;;;;;6.79;100.00;99492.03;5028181;28;20048;-64
2022/09/28 01:21:23;;;;;;;12.35;10.85;;;;;;;6.80;100.00;99487.78;5027899;28;20036;-65
2022/09/28 01:24:16;;;;;;;13.18;10.88;;;;;;;6.81;100.00;99495.53;5027928;28;20029;-64
2022/09/28 01:26:59;;;;;;;11.20;10.05;;;;;;;6.84;100.00;99494.72;5027763;28;20083;-62
2022/09/28 01:30:02;;;;;;;11.80;10.75;;;;;;;6.83;100.00;99499.03;5027953;28;20108;-62
2022/09/28 01:32:54;;;;;;;13.68;11.88;;;;;;;6.84;100.00;99497.28;5027433;28;20025;-65
2022/09/28 01:35:25;;;;;;;12.05;10.98;;;;;;;6.84;100.00;99499.88;4983413;28;20482;-64
2022/09/28 01:37:57;;;;;;;13.43;12.18;;;;;;;6.84;100.00;99499.88;5027705;28;20462;-64
2022/09/28 01:40:26;;;;;;;14.15;12.60;;;;;;;6.84;100.00;99499.88;5029278;28;20021;-64
2022/09/28 01:43:16;;;;;;;13.32;12.02;;;;;;;6.80;100.00;99503.22;5039417;28;20052;-64
2022/09/28 01:45:48;;;;;;;14.00;12.77;;;;;;;6.81;100.00;99508.41;5026692;28;20060;-65
2022/09/28 01:48:24;;;;;;;14.32;12.38;;;;;;;6.82;100.00;99509.25;5027425;28;20028;-65
2022/09/28 01:50:56;;;;;;;16.23;14.10;;;;;;;6.80;100.00;99505.78;5027170;28;20031;-64
2022/09/28 01:53:28;;;;;;;14.48;12.98;;;;;;;6.81;100.00;99510.09;5027662;28;20037;-65
2022/09/28 01:55:58;;;;;;;14.70;13.30;;;;;;;6.83;100.00;99513.59;5023198;28;20497;-65
2022/09/28 01:58:34;;;;;;;15.65;14.05;;;;;;;6.84;100.00;99515.31;5017549;28;20033;-64
2022/09/28 02:01:04;;;;;;;16.45;14.32;;;;;;;6.85;100.00;99517.09;5027491;28;20095;-65
2022/09/28 02:03:47;;;;;;;16.30;14.68;;;;;;;6.86;100.00;99511.09;5027387;28;20469;-65
2022/09/28 02:06:21;;;;;;;16.55;14.75;;;;;;;6.87;100.00;99505.13;5027055;28;20009;-64
2022/09/28 02:08:56;;;;;;;17.73;15.88;;;;;;;6.85;100.00;99499.06;5026805;28;20698;-64
2022/09/28 02:11:22;;;;;;;16.70;15.05;;;;;;;6.85;100.00;99507.63;5027089;28;20025;-65
2022/09/28 02:14:07;;;;;;;19.55;17.35;;;;;;;6.85;100.00;99501.63;5027823;28;20056;-65
2022/09/28 02:16:40;;;;;;;19.35;17.35;;;;;;;6.85;100.00;99489.59;5026240;28;20032;-64
2022/09/28 02:19:11;;;;;;;19.92;17.83;;;;;;;6.88;100.00;99488.81;5027134;28;20112;-64
2022/09/28 02:21:58;;;;;;;18.90;17.10;;;;;;;6.92;100.00;99497.50;5026955;28;20029;-64
2022/09/28 02:24:34;;;;;;;19.30;17.40;;;;;;;6.92;100.00;99502.66;5027101;28;20037;-64
2022/09/28 02:27:06;;;;;;;18.38;16.38;;;;;;;6.94;100.00;99501.84;5027505;28;20017;-64
2022/09/28 02:29:31;;;;;;;18.02;16.33;;;;;;;6.96;100.00;99501.91;5026447;28;20034;-65
2022/09/28 02:31:57;;;;;;;20.00;15.40;;;;;;;6.97;100.00;99496.78;5026793;28;20095;-64
2022/09/28 02:34:22;;;;;;;17.08;14.23;;;;;;;6.99;100.00;99503.69;5027040;28;20429;-64
2022/09/28 02:36:48;;;;;;;14.48;13.15;;;;;;;7.00;100.00;99500.28;5026731;28;20037;-64
2022/09/28 02:39:16;;;;;;;13.63;12.40;;;;;;;7.00;100.00;99495.13;5027293;28;20021;-64
2022/09/28 02:42:00;;;;;;;13.88;11.50;;;;;;;6.99;100.00;99501.97;5026699;28;20025;-64
2022/09/28 02:44:31;;;;;;;12.20;11.00;;;;;;;6.96;100.00;99502.75;5026201;28;20124;-64
2022/09/28 02:47:15;;;;;;;11.32;10.32;;;;;;;6.94;100.00;99495.84;5026467;28;20079;-64
2022/09/28 02:50:24;;;;;;;10.63;9.60;;;;;;;6.93;100.00;99505.25;5026702;28;20030;-64
2022/09/28 02:53:10;;;;;;;11.98;10.85;;;;;;;6.94;100.00;99506.16;5026658;28;20107;-64
2022/09/28 02:56:11;;;;;;;10.43;9.43;;;;;;;6.96;100.00;99507.06;5029185;28;20495;-64
2022/09/28 02:58:36;;;;;;;10.30;9.27;;;;;;;6.94;100.00;99509.56;4999439;28;20095;-64
2022/09/28 03:01:39;;;;;;;10.30;9.18;;;;;;;6.94;100.00;99509.56;5030184;28;20025;-64
2022/09/28 03:04:25;;;;;;;12.13;9.13;;;;;;;6.92;100.00;99506.09;5030276;28;20151;-64
2022/09/28 03:07:00;;;;;;;10.52;9.52;;;;;;;6.87;100.00;99506.81;5030634;28;20032;-64
2022/09/28 03:09:33;;;;;;;10.00;9.00;;;;;;;6.87;100.00;99509.41;5030165;28;20051;-64
2022/09/28 03:12:05;;;;;;;10.73;8.52;;;;;;;6.86;100.00;99513.66;5030512;28;20647;-64
2022/09/28 03:14:30;;;;;;;9.02;8.18;;;;;;;6.80;100.00;99508.38;5030479;28;20072;-64
2022/09/28 03:16:55;;;;;;;8.50;7.68;;;;;;;6.82;100.00;99510.13;5030166;28;20112;-64
2022/09/28 03:19:26;;;;;;;8.48;7.68;;;;;;;6.84;100.00;99505.03;5029779;28;20087;-64
2022/09/28 03:21:51;;;;;;;8.60;7.70;;;;;;;6.85;100.00;99504.22;5030431;28;20036;-64
2022/09/28 03:24:17;;;;;;;8.30;7.50;;;;;;;6.86;100.00;99508.50;5030582;28;20029;-64
2022/09/28 03:26:42;;;;;;;9.65;8.02;;;;;;;6.83;100.00;99508.44;5030023;28;20023;-64
2022/09/28 03:29:07;;;;;;;11.32;6.90;;;;;;;6.85;100.00;99507.63;5030091;28;20033;-64
2022/09/28 03:31:33;;;;;;;7.55;6.85;;;;;;;6.87;100.00;99505.13;5029496;28;20077;-64
2022/09/28 03:33:59;;;;;;;8.07;7.28;;;;;;;6.86;100.00;99500.78;5030211;28;20026;-64
2022/09/28 03:36:24;;;;;;;6.97;6.25;;;;;;;6.87;100.00;99507.69;5029849;28;20029;-64
2022/09/28 03:38:54;;;;;;;7.22;6.07;;;;;;;6.89;100.00;99507.72;5029908;28;20022;-64
2022/09/28 03:41:20;;;;;;;8.60;6.35;;;;;;;6.88;100.00;99500.81;5029869;28;20113;-64
2022/09/28 03:43:46;;;;;;;6.43;5.82;;;;;;;6.88;100.00;99503.41;5028834;28;20400;-64
2022/09/28 03:46:11;;;;;;;6.68;5.72;;;;;;;6.87;100.00;99504.25;5029897;28;20436;-64
2022/09/28 03:48:37;;;;;;;7.30;5.55;;;;;;;6.85;100.00;99510.22;5029360;28;20033;-64
2022/09/28 03:51:05;;;;;;;6.20;5.65;;;;;;;6.85;100.00;99512.78;5030339;28;20529;-65
2022/09/28 03:53:32;;;;;;;9.35;5.50;;;;;;;6.85;100.00;99509.34;5028968;28;20025;-64
2022/09/28 03:56:05;;;;;;;6.85;5.50;;;;;;;6.80;100.00;99511.78;5029247;28;20049;-64
2022/09/28 03:58:31;;;;;;;7.97;5.35;;;;;;;6.79;100.00;99517.78;5029556;28;20025;-65
2022/09/28 04:01:04;;;;;;;7.82;5.55;;;;;;;6.77;100.00;99518.56;5029289;28;20044;-65
2022/09/28 04:03:30;;;;;;;5.13;4.47;;;;;;;6.78;100.00;99520.31;5029268;28;20025;-65
2022/09/28 04:05:55;;;;;;;6.25;4.30;;;;;;;6.77;100.00;99514.28;5028109;28;20029;-65
2022/09/28 04:08:20;;;;;;;4.90;4.18;;;;;;;6.79;100.00;99522.06;5029694;28;20017;-65
2022/09/28 04:10:46;;;;;;;4.63;4.22;;;;;;;6.79;100.00;99516.91;5028961;28;20108;-65
2022/09/28 04:13:11;;;;;;;4.63;4.22;;;;;;;6.79;100.00;99511.75;5029262;28;20101;-65
2022/09/28 04:15:37;;;;;;;5.55;4.10;;;;;;;6.81;100.00;99512.66;5028800;28;20067;-65
2022/09/28 04:18:04;;;;;;;4.78;4.13;;;;;;;6.82;100.00;99511.81;5029259;28;20013;-64
2022/09/28 04:20:29;;;;;;;6.57;4.57;;;;;;;6.84;100.00;99520.47;5029404;28;20120;-65
2022/09/28 04:22:56;;;;;;;4.22;3.83;;;;;;;6.83;100.00;99518.75;5028801;28;20029;-65
2022/09/28 04:25:22;;;;;;;6.70;4.10;;;;;;;6.83;100.00;99517.03;5029505;28;20025;-65
2022/09/28 04:30:32;;;;;;;5.30;3.55;;;;;;;6.82;100.00;99511.81;5031495;28;20075;-64
2022/09/28 04:32:57;;;;;;;5.50;3.78;;;;;;;6.80;100.00;99508.38;5033799;28;20034;-64
2022/09/28 04:35:23;;;;;;;10.38;4.20;;;;;;;6.80;100.00;99505.78;5028522;28;20076;-65
2022/09/28 04:37:48;;;;;;;4.97;3.05;;;;;;;6.80;100.00;99508.38;5027865;28;20025;-65
2022/09/28 04:40:13;;;;;;;2.63;2.42;;;;;;;6.81;100.00;99502.38;5028096;28;20128;-65
2022/09/28 04:42:39;;;;;;;3.47;2.78;;;;;;;6.80;100.00;99498.91;5040279;28;20045;-65
2022/09/28 04:45:05;;;;;;;3.03;2.63;;;;;;;6.82;100.00;99501.53;5028472;28;20493;-64
2022/09/28 04:47:30;;;;;;;4.75;2.53;;;;;;;6.78;100.00;99500.56;5028605;28;20461;-64
2022/09/28 04:49:55;;;;;;;3.33;2.63;;;;;;;6.75;100.00;99504.78;5019323;28;20045;-64
2022/09/28 04:52:21;;;;;;;3.88;2.70;;;;;;;6.73;100.00;99504.75;5039025;28;20036;-65
2022/09/28 04:54:46;;;;;;;4.28;2.40;;;;;;;6.71;100.00;99509.84;5027939;28;20488;-64
2022/09/28 04:57:11;;;;;;;3.40;2.50;;;;;;;6.66;100.00;99511.44;5028302;28;20040;-64
2022/09/28 04:59:36;;;;;;;2.20;2.00;;;;;;;6.62;100.00;99509.59;5027919;28;20029;-64
2022/09/28 05:02:03;;;;;;;2.80;2.22;;;;;;;6.62;100.00;99521.63;5028217;28;20469;-64
2022/09/28 05:04:29;;;;;;;3.03;2.22;;;;;;;6.58;100.00;99518.09;5028003;28;20060;-64
2022/09/28 05:06:55;;;;;;;1.77;1.67;;;;;;;6.56;100.00;99517.16;5028044;28;20475;-64
2022/09/28 05:09:20;;;;;;;6.30;1.98;;;;;;;6.54;100.00;99529.13;5027678;28;20172;-64
2022/09/28 05:11:48;;;;;;;1.93;1.73;;;;;;;6.52;100.00;99523.06;5027754;28;20028;-65
2022/09/28 05:14:13;;;;;;;1.97;1.87;;;;;;;6.52;100.00;99528.19;5028236;28;20051;-65
2022/09/28 05:16:39;;;;;;;2.78;2.58;;;;;;;6.54;100.00;99531.69;5029782;28;20041;-65
2022/09/28 05:19:05;;;;;;;2.90;1.83;;;;;;;6.53;100.00;99524.81;5027344;28;20462;-65
2022/09/28 05:21:30;;;;;;;3.03;1.73;;;;;;;6.52;100.00;99525.63;5027937;28;20397;-65
2022/09/28 05:23:57;;;;;;;5.22;1.77;;;;;;;6.53;100.00;99529.97;5026946;28;20033;-65
2022/09/28 05:26:22;;;;;;;3.77;1.93;;;;;;;6.54;100.00;99532.56;5025625;28;20037;-65
2022/09/28 05:28:48;;;;;;;4.05;1.70;;;;;;;6.54;100.00;99530.00;5024475;28;20086;-64
2022/09/28 05:31:13;;;;;;;3.47;1.70;;;;;;;6.53;100.00;99532.53;5023953;28;20409;-65
2022/09/28 05:33:38;;;;;;;2.13;1.52;;;;;;;6.51;100.00;99529.03;5026216;28;20033;-64
2022/09/28 05:36:07;;;;;;;3.25;2.08;;;;;;;6.52;100.00;99534.22;5026798;28;20033;-64
2022/09/28 05:38:32;;;;;;;4.32;2.10;;;;;;;6.51;100.00;99531.63;5027427;28;20393;-65
2022/09/28 05:40:58;;;;;;;3.70;2.00;;;;;;;6.51;100.00;99531.63;5026074;28;20029;-65
2022/09/28 05:43:23;;;;;;;2.27;1.90;;;;;;;6.49;100.00;99531.59;5027323;28;20084;-65
2022/09/28 05:45:48;;;;;;;5.22;1.92;;;;;;;6.46;100.00;99527.22;5032453;28;20029;-65
2022/09/28 05:48:14;;;;;;;6.17;2.23;;;;;;;6.47;100.00;99526.41;5026771;28;20071;-64
2022/09/28 05:50:39;;;;;;;2.25;1.60;;;;;;;6.47;100.00;99531.53;5027393;28;20083;-64
2022/09/28 05:53:09;;;;;;;2.40;2.10;;;;;;;6.45;100.00;99533.19;5027168;28;20037;-64
2022/09/28 05:55:35;;;;;;;3.92;2.13;;;;;;;6.47;100.00;99528.09;5026777;28;20044;-64
2022/09/28 05:58:03;;;;;;;2.53;2.33;;;;;;;6.48;100.00;99533.28;5027753;28;20478;-64
2022/09/28 06:00:29;;;;;;;3.10;2.38;;;;;;;6.51;100.00;99527.34;5035232;28;20032;-65
2022/09/28 06:03:00;;;;;;;2.75;2.40;;;;;;;6.52;100.00;99538.50;5026025;28;20079;-64
2022/09/28 06:05:27;;;;;;;2.80;2.60;;;;;;;6.53;100.00;99542.84;5025349;28;20033;-65
2022/09/28 06:07:57;;;;;;;3.33;3.03;;;;;;;6.54;100.00;99542.00;5007540;28;20308;-65
2022/09/28 06:10:23;;;;;;;3.00;2.70;;;;;;;6.56;100.00;99542.91;5025080;28;20059;-65
2022/09/28 06:12:55;;;;;;;4.15;3.75;;;;;;;6.58;100.00;99544.69;5026184;28;20301;-64
2022/09/28 06:15:22;;;;;;;4.03;3.73;;;;;;;6.59;100.00;99545.56;5025491;28;20021;-65
2022/09/28 06:17:54;;;;;;;5.18;4.03;;;;;;;6.63;100.00;99551.66;5025559;28;20029;-65
2022/09/28 06:20:20;;;;;;;4.47;3.90;;;;;;;6.65;100.00;99553.47;5024845;28;20025;-64
2022/09/28 06:22:49;;;;;;;5.73;4.53;;;;;;;6.65;100.00;99561.19;5025489;28;20504;-65
2022/09/28 06:25:15;;;;;;;4.77;4.13;;;;;;;6.64;100.00;99563.72;5025377;28;20018;-65
2022/09/28 06:27:41;;;;;;;4.80;4.17;;;;;;;6.59;100.00;99563.59;5025441;28;20021;-65
2022/09/28 06:30:06;;;;;;;7.38;5.05;;;;;;;6.56;100.00;99556.66;5027810;28;20018;-65
2022/09/28 06:32:32;;;;;;;5.47;4.83;;;;;;;6.53;100.00;99560.84;5031257;28;20389;-65
2022/09/28 06:34:57;;;;;;;7.77;5.20;;;;;;;6.49;100.00;99571.03;5031167;28;20029;-65
2022/09/28 06:37:24;;;;;;;5.85;5.18;;;;;;;6.47;100.00;99565.00;5030963;28;20028;-65
2022/09/28 06:39:50;;;;;;;7.10;5.43;;;;;;;6.44;100.00;99567.47;5030311;28;20018;-65
2022/09/28 06:42:17;;;;;;;6.22;5.72;;;;;;;6.45;100.00;99569.22;5030963;28;20044;-65
2022/09/28 06:44:43;;;;;;;8.00;6.18;;;;;;;6.45;100.00;99574.38;5030320;28;20079;-65
2022/09/28 06:47:08;;;;;;;6.97;6.28;;;;;;;6.44;100.00;99572.63;5030868;28;20025;-65
2022/09/28 06:49:33;;;;;;;10.60;6.97;;;;;;;6.45;100.00;99574.38;5031159;28;20636;-65
2022/09/28 06:51:59;;;;;;;7.80;7.00;;;;;;;6.46;100.00;99576.09;5031266;28;20021;-65
2022/09/28 06:54:24;;;;;;;11.57;7.97;;;;;;;6.47;100.00;99572.72;5030737;28;20030;-65
2022/09/28 06:56:51;;;;;;;9.70;8.70;;;;;;;6.48;100.00;99578.72;5030334;28;20021;-65
2022/09/28 06:59:16;;;;;;;13.30;8.97;;;;;;;6.52;100.00;99589.97;5031065;28;20029;-65
2022/09/28 07:01:42;;;;;;;11.18;8.48;;;;;;;6.55;100.00;99579.78;5031033;28;20036;-65
2022/09/28 07:04:07;;;;;;;10.15;9.07;;;;;;;6.59;100.00;99586.75;5030603;28;20029;-65
2022/09/28 07:06:32;;;;;;;10.48;9.10;;;;;;;6.65;100.00;99586.94;5029935;28;20354;-65
2022/09/28 07:09:01;;;;;;;10.40;9.40;;;;;;;6.68;100.00;99587.00;5030788;28;20524;-65
2022/09/28 07:11:27;;;;;;;11.52;9.65;;;;;;;6.71;100.00;99591.41;5030597;28;20036;-65
2022/09/28 07:13:53;;;;;;;10.55;9.50;;;;;;;6.78;100.00;99589.84;5029642;28;20087;-66
2022/09/28 07:16:18;;;;;;;15.02;9.30;;;;;;;6.83;100.00;99591.72;5030373;28;20059;-65
2022/09/28 07:18:44;;;;;;;11.00;9.90;;;;;;;6.91;100.00;99598.75;5030642;28;20063;-65
2022/09/28 07:21:09;;;;;;;10.73;9.68;;;;;;;7.01;100.00;99592.16;5030373;28;20470;-65
2022/09/28 07:23:34;;;;;;;13.02;10.40;;;;;;;7.11;100.00;99589.00;5030050;28;20025;-65
2022/09/28 07:26:03;;;;;;;11.25;10.02;;;;;;;7.25;100.00;99598.81;5030398;28;20021;-65
2022/09/28 07:28:30;;;;;;;14.60;11.63;;;;;;;7.59;100.00;99602.19;5016035;28;20017;-65
2022/09/28 07:30:56;;;;;;;12.02;11.00;;;;;;;8.10;100.00;99592.19;5029951;28;20033;-66
2022/09/28 07:33:24;;;;;;;9.35;8.43;;;;;;;8.81;100.00;99599.72;5030190;28;20033;-66
2022/09/28 07:35:54;;;;;;;8.65;6.20;;;;;;;9.68;100.00;99596.88;5030418;28;20070;-66
2022/09/28 07:38:19;;;;;;;6.30;5.70;;;;;;;10.42;100.00;99593.59;5029999;28;20021;-66
2022/09/28 07:43:28;;;;;;;5.47;4.47;;;;;;;11.76;100.00;99604.47;5030218;28;20088;-65
2022/09/28 07:45:54;;;;;;;4.20;3.40;;;;;;;12.32;100.00;99606.56;5029613;28;20045;-66
2022/09/28 07:48:20;;;;;;;4.43;3.88;;;;;;;12.83;100.00;99608.50;5029933;28;20433;-64
2022/09/28 07:50:51;;;;;;;4.20;2.70;;;;;;;13.24;100.00;99616.41;5030012;28;20040;-64
2022/09/28 07:53:18;;;;;;;6.47;2.88;;;;;;;13.61;100.00;99608.66;5029201;28;20022;-65
2022/09/28 07:55:43;;;;;;;3.28;2.95;;;;;;;13.91;97.20;99612.09;5029718;28;20052;-64
2022/09/28 07:58:08;;;;;;;6.00;3.22;;;;;;;14.23;97.62;99617.25;5029792;28;20417;-65
2022/09/28 08:00:34;;;;;;;4.13;2.13;;;;;;;14.53;94.16;99607.59;5029169;28;20091;-63
2022/09/28 08:03:02;;;;;;;3.10;2.60;;;;;;;14.84;90.18;99614.44;5029468;28;20039;-63
2022/09/28 08:05:30;;;;;;;3.00;2.63;;;;;;;14.88;91.23;99617.03;5029622;28;20032;-62
2022/09/28 08:07:57;;;;;;;3.25;2.80;;;;;;;14.85;91.57;99614.44;5028933;28;20517;-63
2022/09/28 08:10:23;;;;;;;6.13;2.88;;;;;;;14.72;90.61;99610.09;5029375;28;20021;-64
2022/09/28 08:12:55;;;;;;;3.38;3.08;;;;;;;14.99;92.06;99613.47;5029357;28;20071;-63
2022/09/28 08:15:21;;;;;;;3.28;2.80;;;;;;;15.07;87.59;99623.88;5029526;28;20025;-63
2022/09/28 08:17:47;;;;;;;4.03;2.33;;;;;;;15.35;84.77;99632.38;5028852;28;20105;-63
2022/09/28 08:23:06;;;;;;;2.72;1.98;;;;;;;15.73;85.13;99627.75;5028739;28;20040;-62
2022/09/28 08:25:31;;;;;;;3.45;2.15;;;;;;;15.71;87.93;99633.84;5029071;28;20025;-63
2022/09/28 08:27:57;;;;;;;3.30;2.70;;;;;;;15.69;81.13;99633.00;5028719;28;20022;-62
2022/09/28 08:30:22;;;;;;;4.63;2.45;;;;;;;15.75;82.18;99635.56;5028353;28;20048;-62
2022/09/28 08:32:48;;;;;;;5.35;2.85;;;;;;;15.80;82.35;99636.38;5029092;28;20040;-63
2022/09/28 08:35:14;;;;;;;5.68;2.55;;;;;;;15.80;83.00;99633.78;5029004;28;20440;-63
2022/09/28 08:37:39;;;;;;;4.38;2.60;;;;;;;16.02;82.92;99638.84;5029048;28;20056;-63
2022/09/28 08:40:11;;;;;;;3.47;2.08;;;;;;;16.18;79.88;99643.91;5010903;28;20736;-62
2022/09/28 08:42:42;;;;;;;3.03;2.63;;;;;;;16.37;79.78;99641.94;5028699;28;20076;-62
2022/09/28 08:45:13;;;;;;;4.43;2.70;;;;;;;16.19;81.31;99635.19;5028297;28;20040;-62
2022/09/28 08:51:13;;;;;;;2.65;2.30;;;;;;;15.84;81.13;99645.06;5029123;28;20080;-62
2022/09/28 08:53:44;;;;;;;3.10;2.40;;;;;;;15.77;81.07;99649.47;5027853;28;20026;-62
2022/09/28 08:56:17;;;;;;;3.15;2.42;;;;;;;15.73;83.83;99655.59;5028515;28;20108;-62
2022/09/28 08:58:47;;;;;;;4.50;3.05;;;;;;;15.72;82.54;99652.13;5028441;28;20029;-62
2022/09/28 09:01:17;;;;;;;3.67;2.58;;;;;;;15.56;82.52;99661.81;5028546;28;20067;-63
2022/09/28 09:03:44;;;;;;;3.45;2.25;;;;;;;15.28;82.94;99663.75;5028107;28;20036;-62
2022/09/28 09:06:27;;;;;;;2.75;2.10;;;;;;;15.34;82.01;99659.34;5028331;28;20026;-63
2022/09/28 09:09:20;;;;;;;3.72;2.67;;;;;;;15.22;83.91;99656.81;5029004;28;20017;-63
2022/09/28 09:11:54;;;;;;;2.20;2.00;;;;;;;15.36;82.61;99670.66;5029059;28;20017;-63
2022/09/28 09:14:30;;;;;;;2.22;2.03;;;;;;;15.23;83.42;99663.78;5028961;28;20025;-63
2022/09/28 09:17:26;;;;;;;4.20;2.83;;;;;;;15.17;84.61;99671.63;5028774;28;20488;-63
2022/09/28 09:19:57;;;;;;;2.80;2.28;;;;;;;15.09;82.80;99664.72;5028567;28;20083;-63
2022/09/28 09:22:37;;;;;;;2.83;2.17;;;;;;;15.05;82.22;99673.47;5028421;28;20025;-62
2022/09/28 09:25:23;;;;;;;3.40;2.58;;;;;;;14.87;85.95;99667.47;5028586;28;20021;-62
2022/09/28 09:28:26;;;;;;;3.00;2.70;;;;;;;14.83;86.93;99677.88;5028370;28;20029;-63
2022/09/28 09:31:22;;;;;;;4.20;2.53;;;;;;;14.67;85.57;99669.22;5028373;28;20029;-63
2022/09/28 09:33:57;;;;;;;4.30;2.45;;;;;;;14.57;87.74;99679.69;5028555;28;20033;-63
2022/09/28 09:36:38;;;;;;;3.92;2.45;;;;;;;14.56;88.00;99679.69;5028479;28;20063;-63
2022/09/28 09:39:16;;;;;;;2.83;2.33;;;;;;;14.51;89.61;99690.13;5028051;28;20060;-63
2022/09/28 09:41:55;;;;;;;3.47;2.38;;;;;;;14.36;91.72;99685.81;5028173;28;20032;-63
2022/09/28 09:44:53;;;;;;;3.40;2.50;;;;;;;14.13;92.89;99692.81;5027886;28;20057;-63
2022/09/28 09:47:35;;;;;;;3.85;2.25;;;;;;;14.00;89.56;99694.56;5027470;28;20494;-63
2022/09/28 09:50:18;;;;;;;3.25;2.10;;;;;;;13.96;90.60;99691.97;5028508;28;20108;-62
2022/09/28 09:53:22;;;;;;;2.65;1.60;;;;;;;13.89;89.54;99694.56;5028066;28;20064;-62
2022/09/28 09:55:57;;;;;;;3.78;2.78;;;;;;;13.84;95.85;99696.28;4977552;28;20385;-63
2022/09/28 09:58:34;;;;;;;2.28;1.80;;;;;;;13.72;93.59;99704.09;5027627;28;20108;-62
2022/09/28 10:01:17;;;;;;;4.32;2.08;;;;;;;13.57;95.57;99695.41;5027652;28;20025;-63
2022/09/28 10:03:47;;;;;;;4.28;2.30;;;;;;;13.58;96.77;99691.94;5027255;28;20025;-63
2022/09/28 10:06:24;;;;;;;3.25;1.95;;;;;;;13.49;98.26;99699.69;5027505;28;20021;-62
2022/09/28 10:09:00;;;;;;;4.05;2.00;;;;;;;13.37;95.22;99701.41;5010341;28;20022;-62
2022/09/28 10:11:42;;;;;;;4.65;2.22;;;;;;;13.27;97.19;99694.44;5027589;28;20026;-62
2022/09/28 10:14:14;;;;;;;2.72;2.20;;;;;;;13.15;95.38;99692.69;5028178;28;20088;-63
2022/09/28 10:16:40;;;;;;;2.55;1.70;;;;;;;13.23;96.83;99690.97;5027412;28;20060;-62
2022/09/28 10:19:10;;;;;;;3.97;2.08;;;;;;;13.36;99.95;99691.00;5027961;28;20087;-63
2022/09/28 10:21:39;;;;;;;5.88;2.20;;;;;;;13.54;97.08;99691.06;5028121;28;20025;-62
2022/09/28 10:24:06;;;;;;;2.45;1.95;;;;;;;13.61;97.02;99685.84;5028050;28;20388;-63
2022/09/28 10:26:38;;;;;;;3.58;1.80;;;;;;;13.64;96.32;99681.53;5027691;28;20123;-62
2022/09/28 10:29:13;;;;;;;9.02;2.47;;;;;;;13.55;93.00;99692.81;5027276;28;20036;-63
2022/09/28 10:31:49;;;;;;;2.85;1.80;;;;;;;13.52;93.34;99690.19;5027500;28;20013;-62
2022/09/28 10:34:25;;;;;;;7.25;2.10;;;;;;;13.49;94.13;99684.09;5027825;28;20036;-62
2022/09/28 10:36:58;;;;;;;4.47;2.20;;;;;;;13.49;95.71;99687.53;5027269;28;20022;-63
2022/09/28 10:39:36;;;;;;;3.33;1.80;;;;;;;13.48;94.97;99691.03;5026957;28;20017;-63
2022/09/28 10:42:06;;;;;;;4.63;2.15;;;;;;;13.57;94.44;99685.00;5027471;28;20087;-63
2022/09/28 10:44:34;;;;;;;3.13;2.08;;;;;;;13.64;96.58;99686.72;5027484;28;20085;-63
2022/09/28 10:47:02;;;;;;;2.92;1.63;;;;;;;13.64;95.55;99681.53;5027621;28;20347;-63
2022/09/28 10:49:39;;;;;;;2.90;1.83;;;;;;;13.56;93.12;99688.47;5027488;28;20033;-62
2022/09/28 10:52:07;;;;;;;4.15;1.77;;;;;;;13.49;92.11;99687.53;5027063;28;20025;-62
2022/09/28 10:54:33;;;;;;;3.08;1.75;;;;;;;13.39;94.71;99681.47;5027813;28;20059;-63
2022/09/28 10:56:59;;;;;;;2.63;1.70;;;;;;;13.41;94.47;99690.16;5027434;28;20108;-62
2022/09/28 10:59:27;;;;;;;2.63;1.70;;;;;;;13.38;93.69;99679.75;5027165;28;20021;-62
2022/09/28 11:01:58;;;;;;;3.70;2.05;;;;;;;13.26;95.83;99695.31;5026873;28;20041;-62
2022/09/28 11:04:27;;;;;;;6.25;3.38;;;;;;;13.16;98.31;99690.09;5027282;28;20017;-63
2022/09/28 11:06:58;;;;;;;3.67;2.25;;;;;;;13.27;100.00;99697.03;5027564;28;20130;-62
2022/09/28 11:09:38;;;;;;;;;;;;;;;13.56;99.87;99688.47;5027415;28;20115;-63
2022/09/28 11:12:05;;;;;;;2.70;2.10;;;;;;;13.92;98.12;99681.53;5027311;28;20439;-62
2022/09/28 11:14:36;;;;;;;2.58;1.55;;;;;;;14.09;94.77;99688.47;5026464;28;20384;-63
2022/09/28 11:17:15;;;;;;;3.30;1.70;;;;;;;14.30;93.99;99686.72;5030184;28;20021;-62
2022/09/28 11:19:42;;;;;;;3.70;1.48;;;;;;;14.44;92.33;99683.19;5030272;28;20021;-63
2022/09/28 11:22:29;;;;;;;2.20;1.38;;;;;;;14.34;91.48;99679.75;5030473;28;20465;-63
2022/09/28 11:25:23;;;;;;;4.00;1.60;;;;;;;14.19;90.42;99678.03;5030411;28;20025;-62
2022/09/28 11:27:51;;;;;;;3.90;1.48;;;;;;;14.08;91.38;99671.13;5030356;28;20500;-63
2022/09/28 11:30:48;;;;;;;2.15;1.30;;;;;;;14.02;90.80;99679.78;5029963;28;20029;-63
2022/09/28 11:33:18;;;;;;;3.08;1.38;;;;;;;14.04;93.67;99687.59;5030062;28;20053;-63
2022/09/28 11:36:00;;;;;;;2.67;1.50;;;;;;;13.96;94.82;99677.19;5029632;28;20033;-63
2022/09/28 11:38:46;;;;;;;3.10;1.30;;;;;;;13.89;93.57;99676.31;5030470;28;20025;-64
2022/09/28 11:41:57;;;;;;;4.72;1.33;;;;;;;13.76;94.62;99690.22;5030151;28;20082;-63
2022/09/28 11:44:45;;;;;;;1.73;0.70;;;;;;;13.56;94.83;99688.47;5013941;28;20053;-63
2022/09/28 11:47:29;;;;;;;1.63;0.90;;;;;;;13.40;95.54;99693.59;5029853;28;20068;-63
2022/09/28 11:50:17;;;;;;;2.63;1.00;;;;;;;13.20;96.25;99702.22;5029932;28;20189;-63
2022/09/28 11:52:49;;;;;;;3.63;1.20;;;;;;;12.89;100.00;99686.53;5029877;28;20022;-63
2022/09/28 11:55:40;;;;;;;3.80;1.50;;;;;;;12.61;100.00;99686.38;5029089;28;20029;-63
2022/09/28 11:58:16;;;;;;;2.40;1.20;;;;;;;12.44;100.00;99684.56;5029599;28;20033;-62
2022/09/28 12:00:47;;;;;;;2.97;1.25;;;;;;;12.39;100.00;99682.81;5029404;28;20022;-63